Time;durP1;ratioP1;P1;durP2;ratioP2;P2;SDS_P1;SDS_P2;PMS_P1;PMS_P2;Temp;Humidity;BMP_temperature;BMP_pressure;BME280_temperature;BME280_humidity;BME280_pressure;Samples;Min_cycle;Max_cycle;Signal;HPM_P1;HPM_P2
2021/08/18 00:00:50;;;;;;;10.05;8.50;;;;;;;18.10;100.00;92928.94;5069526;28;20521;-81
2021/08/18 00:03:17;;;;;;;11.98;8.40;;;;;;;18.29;100.00;92936.94;5069381;28;20048;-80
2021/08/18 00:05:44;;;;;;;14.65;9.25;;;;;;;18.31;100.00;92934.09;5069278;28;20072;-80
2021/08/18 00:08:12;;;;;;;9.60;8.15;;;;;;;18.43;100.00;92926.00;5069244;28;20052;-80
2021/08/18 00:10:40;;;;;;;12.52;8.40;;;;;;;18.51;100.00;92929.88;5069630;28;20044;-80
2021/08/18 00:13:10;;;;;;;10.40;8.25;;;;;;;18.41;100.00;92928.88;5069083;28;20048;-81
2021/08/18 00:15:39;;;;;;;11.68;8.63;;;;;;;18.33;100.00;92906.00;5069249;28;20504;-80
2021/08/18 00:18:06;;;;;;;13.05;8.75;;;;;;;18.61;100.00;92932.44;5068843;28;20094;-81
2021/08/18 00:20:34;;;;;;;11.77;8.35;;;;;;;18.64;100.00;92928.50;5069226;28;20492;-80
2021/08/18 00:23:01;;;;;;;12.68;8.07;;;;;;;18.55;100.00;92923.09;5069233;28;20416;-80
2021/08/18 00:25:28;;;;;;;14.73;8.45;;;;;;;18.48;100.00;92923.41;5068976;28;20044;-80
2021/08/18 00:27:54;;;;;;;14.18;9.38;;;;;;;18.55;100.00;92910.09;5068867;28;20102;-79
2021/08/18 00:30:22;;;;;;;12.10;8.18;;;;;;;18.63;100.00;92930.34;5068982;28;20044;-79
2021/08/18 00:32:50;;;;;;;10.18;7.75;;;;;;;18.35;100.00;92905.75;5068902;28;20165;-80
2021/08/18 00:35:17;;;;;;;10.02;7.88;;;;;;;18.75;100.00;92917.00;5069247;28;20511;-79
2021/08/18 00:37:44;;;;;;;14.70;8.52;;;;;;;18.82;100.00;92901.13;5067678;28;20049;-79
2021/08/18 00:40:12;;;;;;;17.35;8.00;;;;;;;18.99;100.00;92905.19;5065719;28;20057;-80
2021/08/18 00:42:40;;;;;;;11.82;8.13;;;;;;;19.19;100.00;92917.34;5067485;28;20048;-80
2021/08/18 00:45:08;;;;;;;12.98;8.00;;;;;;;19.32;100.00;92918.56;5068637;28;20405;-80
2021/08/18 00:47:41;;;;;;;10.32;7.75;;;;;;;19.30;100.00;92892.03;5068746;28;20056;-79
2021/08/18 00:50:11;;;;;;;9.60;7.45;;;;;;;19.06;100.00;92872.63;5068882;28;20053;-80
2021/08/18 00:52:38;;;;;;;11.20;8.05;;;;;;;19.26;100.00;92896.22;5068784;28;20572;-80
2021/08/18 00:55:08;;;;;;;10.95;8.00;;;;;;;19.38;100.00;92898.47;5069022;28;20055;-79
2021/08/18 00:57:34;;;;;;;9.50;7.60;;;;;;;19.43;100.00;92901.00;5068674;28;20056;-79
2021/08/18 01:00:01;;;;;;;13.60;7.72;;;;;;;19.50;100.00;92907.47;5068832;28;20060;-79
2021/08/18 01:02:29;;;;;;;11.93;7.70;;;;;;;19.30;100.00;92892.03;5068585;28;20067;-79
2021/08/18 01:04:56;;;;;;;9.68;7.53;;;;;;;19.49;100.00;92910.38;5068656;28;20045;-80
2021/08/18 01:07:24;;;;;;;11.82;7.53;;;;;;;19.48;100.00;92912.19;5068611;28;20389;-81
2021/08/18 01:09:51;;;;;;;11.90;8.60;;;;;;;19.29;100.00;92877.41;5069115;28;20049;-79
2021/08/18 01:12:17;;;;;;;10.82;7.70;;;;;;;19.25;100.00;92866.78;5068672;28;20640;-78
2021/08/18 01:14:44;;;;;;;14.60;9.23;;;;;;;19.50;100.00;92898.91;5068750;28;20090;-78
2021/08/18 01:17:13;;;;;;;13.65;9.05;;;;;;;19.48;100.00;92906.19;5061507;28;20057;-78
2021/08/18 01:19:40;;;;;;;12.63;7.93;;;;;;;19.43;100.00;92894.00;5055595;28;20052;-78
2021/08/18 01:22:07;;;;;;;10.85;7.70;;;;;;;19.53;100.00;92903.53;5058233;28;20094;-78
2021/08/18 01:24:36;;;;;;;16.98;8.77;;;;;;;19.54;100.00;92902.50;5056274;28;20045;-78
2021/08/18 01:27:03;;;;;;;11.80;7.97;;;;;;;19.50;100.00;92893.69;5052275;28;20413;-78
2021/08/18 01:29:31;;;;;;;13.20;8.13;;;;;;;19.46;100.00;92903.88;5052377;28;20056;-78
2021/08/18 01:31:59;;;;;;;11.63;7.47;;;;;;;19.41;100.00;92898.72;5052491;28;20049;-78
2021/08/18 01:34:26;;;;;;;12.13;7.90;;;;;;;19.41;100.00;92905.72;5051948;28;20512;-78
2021/08/18 01:36:53;;;;;;;14.05;8.75;;;;;;;19.34;100.00;92909.41;5051969;28;20049;-81
2021/08/18 01:39:19;;;;;;;14.25;8.65;;;;;;;19.05;100.00;92870.31;5052322;28;20417;-81
2021/08/18 01:41:46;;;;;;;13.75;8.57;;;;;;;19.27;100.00;92910.78;5052176;28;20613;-81
2021/08/18 01:44:13;;;;;;;20.48;11.68;;;;;;;19.23;100.00;92906.13;5052248;28;20053;-81
2021/08/18 01:46:41;;;;;;;17.77;8.93;;;;;;;19.06;100.00;92908.28;5052104;28;20053;-81
2021/08/18 01:49:08;;;;;;;11.32;8.68;;;;;;;18.94;100.00;92898.19;5052093;28;20379;-79
2021/08/18 01:51:35;;;;;;;13.85;9.35;;;;;;;18.96;100.00;92920.31;5052270;28;20452;-79
2021/08/18 01:54:02;;;;;;;12.75;9.07;;;;;;;18.86;100.00;92903.97;5051820;28;20486;-80
2021/08/18 01:56:29;;;;;;;15.68;9.25;;;;;;;18.92;100.00;92911.47;5051908;28;20395;-79
2021/08/18 01:58:56;;;;;;;12.02;8.23;;;;;;;18.79;100.00;92901.69;5051664;28;20550;-79
2021/08/18 02:01:23;;;;;;;14.55;9.52;;;;;;;18.58;100.00;92927.78;5051682;28;20048;-80
2021/08/18 02:03:51;;;;;;;13.07;8.43;;;;;;;18.63;100.00;92926.97;5051612;28;20075;-80
2021/08/18 02:06:19;;;;;;;14.30;8.57;;;;;;;18.43;100.00;92915.59;5051917;28;20041;-80
2021/08/18 02:08:45;;;;;;;10.23;7.28;;;;;;;18.29;100.00;92926.56;5051708;28;20064;-80
2021/08/18 02:11:12;;;;;;;10.77;6.93;;;;;;;18.32;100.00;92924.47;5051451;28;20509;-80
2021/08/18 02:13:39;;;;;;;9.52;7.72;;;;;;;18.36;100.00;92930.69;5051700;28;20056;-80
2021/08/18 02:16:06;;;;;;;13.23;7.40;;;;;;;18.43;100.00;92933.81;5051571;28;20053;-80
2021/08/18 02:18:34;;;;;;;17.63;8.40;;;;;;;18.32;100.00;92911.50;5051245;28;20049;-80
2021/08/18 02:21:02;;;;;;;11.95;7.00;;;;;;;18.45;100.00;92928.31;5051721;28;20136;-79
2021/08/18 02:23:29;;;;;;;10.98;7.50;;;;;;;18.43;100.00;92907.81;5051050;28;20052;-80
2021/08/18 02:25:56;;;;;;;17.27;7.88;;;;;;;18.54;100.00;92924.94;5051193;28;20052;-79
2021/08/18 02:28:23;;;;;;;13.63;7.00;;;;;;;18.39;100.00;92910.16;5051215;28;20127;-79
2021/08/18 02:30:50;;;;;;;13.55;7.38;;;;;;;18.51;100.00;92928.06;5051555;28;20045;-80
2021/08/18 02:33:17;;;;;;;10.02;7.57;;;;;;;18.38;100.00;92919.00;5051329;28;20045;-79
2021/08/18 02:35:44;;;;;;;12.63;7.85;;;;;;;18.02;100.00;92864.50;5050942;28;20055;-79
2021/08/18 02:38:12;;;;;;;14.13;7.68;;;;;;;18.41;100.00;92933.28;5051053;28;20045;-78
2021/08/18 02:40:39;;;;;;;12.15;7.70;;;;;;;18.39;100.00;92938.78;5050966;28;20056;-79
2021/08/18 02:43:07;;;;;;;11.18;7.30;;;;;;;18.27;100.00;92930.47;5051067;28;20052;-79
2021/08/18 02:45:34;;;;;;;11.02;7.65;;;;;;;18.01;100.00;92930.50;5051176;28;20049;-79
2021/08/18 02:48:01;;;;;;;14.82;7.82;;;;;;;18.06;100.00;92935.72;5051058;28;20057;-78
2021/08/18 02:50:31;;;;;;;12.27;7.10;;;;;;;18.08;100.00;92938.03;5050566;28;20045;-78
2021/08/18 02:52:57;;;;;;;11.32;6.05;;;;;;;17.95;100.00;92921.16;5050694;28;20053;-79
2021/08/18 02:55:28;;;;;;;15.15;6.97;;;;;;;18.05;100.00;92939.31;5050747;28;20509;-79
2021/08/18 02:57:55;;;;;;;10.68;5.97;;;;;;;18.00;100.00;92923.72;5050650;28;20048;-79
2021/08/18 03:00:22;;;;;;;9.40;5.35;;;;;;;17.83;100.00;92942.22;5050529;28;20538;-80
2021/08/18 03:02:50;;;;;;;11.90;6.35;;;;;;;17.80;100.00;92930.53;5050604;28;20069;-79
2021/08/18 03:05:18;;;;;;;13.05;5.57;;;;;;;17.90;100.00;92946.09;5050491;28;20512;-79
2021/08/18 03:07:44;;;;;;;12.20;6.90;;;;;;;17.66;100.00;92947.66;5050470;28;20057;-80
2021/08/18 03:10:12;;;;;;;13.90;6.32;;;;;;;17.38;100.00;92926.34;5050613;28;20056;-79
2021/08/18 03:12:40;;;;;;;8.43;5.75;;;;;;;17.52;100.00;92947.41;5050327;28;20052;-80
2021/08/18 03:15:08;;;;;;;12.35;5.90;;;;;;;17.65;100.00;92946.09;5050068;28;20048;-79
2021/08/18 03:17:35;;;;;;;10.73;6.00;;;;;;;17.62;100.00;92947.41;5050605;28;20052;-79
2021/08/18 03:20:02;;;;;;;11.55;6.00;;;;;;;17.77;100.00;92957.81;5050722;28;20660;-78
2021/08/18 03:22:28;;;;;;;12.48;6.40;;;;;;;17.81;100.00;92958.06;5050290;28;20413;-78
2021/08/18 03:24:55;;;;;;;9.65;5.78;;;;;;;17.77;100.00;92968.19;5050056;28;20521;-79
2021/08/18 03:27:22;;;;;;;11.18;6.22;;;;;;;17.81;100.00;92970.28;5050238;28;20056;-79
2021/08/18 03:29:51;;;;;;;10.05;5.95;;;;;;;17.59;100.00;92953.91;5049872;28;20076;-79
2021/08/18 03:32:18;;;;;;;16.88;6.60;;;;;;;17.70;100.00;92978.06;5055458;28;20045;-81
2021/08/18 03:34:44;;;;;;;11.13;6.35;;;;;;;17.82;100.00;92970.00;5068156;28;20158;-79
2021/08/18 03:37:12;;;;;;;11.95;6.63;;;;;;;17.84;100.00;92973.13;5069316;28;20413;-79
2021/08/18 03:39:38;;;;;;;23.10;7.28;;;;;;;17.88;100.00;92978.59;5069625;28;20063;-78
2021/08/18 03:42:06;;;;;;;12.88;6.35;;;;;;;17.62;100.00;92950.78;5069765;28;20102;-80
2021/08/18 03:44:33;;;;;;;11.40;6.13;;;;;;;17.83;100.00;92976.75;5069491;28;20053;-81
2021/08/18 03:47:01;;;;;;;11.20;6.20;;;;;;;17.89;99.76;92980.94;5069166;28;20059;-80
2021/08/18 03:49:27;;;;;;;9.85;6.00;;;;;;;17.94;99.44;92981.94;5069519;28;20057;-80
2021/08/18 03:51:54;;;;;;;13.27;6.53;;;;;;;17.88;98.92;92987.13;5069765;28;20090;-80
2021/08/18 03:54:21;;;;;;;8.90;5.85;;;;;;;17.92;98.48;92984.81;5069395;28;20052;-80
2021/08/18 03:56:48;;;;;;;11.57;6.00;;;;;;;17.95;98.66;92986.13;5069497;28;20053;-80
2021/08/18 03:59:15;;;;;;;13.32;6.18;;;;;;;17.80;98.11;92966.88;5069268;28;20052;-79
2021/08/18 04:01:42;;;;;;;11.35;6.43;;;;;;;17.55;98.51;92991.03;5069225;28;20060;-79
2021/08/18 04:04:10;;;;;;;12.50;5.88;;;;;;;17.69;98.88;92999.09;5069169;28;20086;-78
2021/08/18 04:06:37;;;;;;;13.68;6.57;;;;;;;17.76;98.06;92991.81;5069682;28;20463;-78
2021/08/18 04:09:03;;;;;;;11.20;6.00;;;;;;;17.72;97.91;93001.97;5069494;28;20051;-78
2021/08/18 04:11:30;;;;;;;14.13;6.13;;;;;;;17.57;99.32;93001.94;5069287;28;20045;-78
2021/08/18 04:13:57;;;;;;;12.15;6.30;;;;;;;17.62;98.95;93000.13;5069192;28;20505;-80
2021/08/18 04:16:24;;;;;;;9.80;5.95;;;;;;;17.47;97.46;93007.91;5069417;28;20068;-80
2021/08/18 04:18:51;;;;;;;15.43;7.15;;;;;;;17.48;99.12;92999.06;5068990;28;20113;-80
2021/08/18 04:21:19;;;;;;;12.50;6.60;;;;;;;17.22;99.63;92983.47;5069345;28;20456;-79
2021/08/18 04:23:46;;;;;;;12.95;6.20;;;;;;;17.50;99.04;93005.56;5069175;28;20077;-79
2021/08/18 04:26:13;;;;;;;12.15;6.00;;;;;;;17.65;97.97;93003.25;5069304;28;20056;-79
2021/08/18 04:28:40;;;;;;;12.77;6.65;;;;;;;17.63;97.38;92991.31;5069582;28;20048;-79
2021/08/18 04:31:07;;;;;;;12.95;6.25;;;;;;;17.78;96.49;93002.75;5069037;28;20044;-79
2021/08/18 04:33:34;;;;;;;9.07;5.72;;;;;;;17.87;96.35;93008.97;5069124;28;20056;-79
2021/08/18 04:36:01;;;;;;;10.65;6.13;;;;;;;17.94;95.81;93013.13;5069503;28;20057;-79
2021/08/18 04:38:29;;;;;;;11.63;5.85;;;;;;;17.95;95.28;93015.47;5068947;28;20111;-80
2021/08/18 04:40:56;;;;;;;11.13;6.22;;;;;;;17.96;94.53;93016.25;5069150;28;20052;-79
2021/08/18 04:43:23;;;;;;;10.77;4.97;;;;;;;17.93;93.54;93014.16;5068910;28;20416;-79
2021/08/18 04:45:49;;;;;;;9.32;4.85;;;;;;;17.82;93.80;93008.22;5068778;28;20051;-80
2021/08/18 04:48:16;;;;;;;9.75;5.00;;;;;;;17.80;93.99;93018.84;5068934;28;20499;-79
2021/08/18 04:50:43;;;;;;;13.73;4.93;;;;;;;17.62;94.58;93023.50;5069008;28;20102;-81
2021/08/18 04:53:11;;;;;;;7.63;5.18;;;;;;;17.76;95.06;93021.19;5069148;28;20060;-81
2021/08/18 04:55:40;;;;;;;11.82;5.43;;;;;;;17.65;94.99;93031.81;5068615;28;20516;-82
2021/08/18 04:58:07;;;;;;;11.48;5.85;;;;;;;17.49;94.89;93011.00;5068807;28;20443;-82
2021/08/18 05:00:34;;;;;;;10.70;5.72;;;;;;;17.54;95.13;93031.03;5073040;28;20151;-81
2021/08/18 05:03:01;;;;;;;17.05;6.25;;;;;;;17.58;95.69;93032.06;5073211;28;20052;-81
2021/08/18 05:05:28;;;;;;;14.55;5.70;;;;;;;17.70;95.12;93031.81;5072611;28;20044;-80
2021/08/18 05:07:58;;;;;;;9.10;5.22;;;;;;;17.62;94.52;93025.31;5073104;28;20093;-79
2021/08/18 05:10:26;;;;;;;10.10;4.88;;;;;;;17.63;94.49;93014.69;5072809;28;20051;-79
2021/08/18 05:12:54;;;;;;;8.60;4.63;;;;;;;17.92;93.96;93039.41;5072542;28;20048;-79
2021/08/18 05:15:20;;;;;;;9.50;5.30;;;;;;;17.89;92.66;93039.91;5072804;28;20055;-79
2021/08/18 05:17:47;;;;;;;12.50;5.00;;;;;;;17.65;92.81;93003.25;5072463;28;20044;-79
2021/08/18 05:20:15;;;;;;;7.40;4.72;;;;;;;17.73;94.03;93024.28;5072595;28;20052;-79
2021/08/18 05:22:42;;;;;;;15.48;5.53;;;;;;;18.06;92.85;93044.06;5072270;28;20496;-79
2021/08/18 05:25:10;;;;;;;9.10;5.32;;;;;;;17.62;92.99;93046.09;5072624;28;20064;-79
2021/08/18 05:27:38;;;;;;;15.95;5.15;;;;;;;17.58;94.12;93042.44;5072069;28;20048;-79
2021/08/18 05:30:09;;;;;;;13.32;5.65;;;;;;;17.77;93.73;93042.75;5072356;28;20048;-79
2021/08/18 05:32:36;;;;;;;6.95;4.25;;;;;;;17.76;92.33;93038.59;5072008;28;20106;-80
2021/08/18 05:35:03;;;;;;;8.60;4.47;;;;;;;17.96;92.04;93042.25;5072297;28;20145;-80
2021/08/18 05:37:30;;;;;;;8.85;4.70;;;;;;;17.93;91.42;93048.75;5071652;28;20052;-80
2021/08/18 05:39:57;;;;;;;7.60;4.45;;;;;;;17.84;91.71;93056.28;5072386;28;20053;-80
2021/08/18 05:42:24;;;;;;;9.88;4.25;;;;;;;17.98;91.79;93033.16;5072337;28;20048;-80
2021/08/18 05:44:50;;;;;;;6.65;4.10;;;;;;;18.10;90.59;93053.69;5072904;28;20060;-80
2021/08/18 05:47:18;;;;;;;7.40;4.03;;;;;;;18.12;90.00;93037.84;5072428;28;20068;-81
2021/08/18 05:49:45;;;;;;;7.95;4.07;;;;;;;18.01;90.19;93022.22;5072564;28;20359;-80
2021/08/18 05:52:12;;;;;;;8.98;3.75;;;;;;;18.11;89.72;93052.69;5072002;28;20044;-82
2021/08/18 05:54:39;;;;;;;7.72;4.00;;;;;;;18.12;89.44;93036.03;5071676;28;20420;-82
2021/08/18 05:57:07;;;;;;;8.48;3.80;;;;;;;17.91;89.98;93048.22;5071798;28;20052;-81
2021/08/18 06:13:23;;;;;;;8.93;4.47;;;;;;;19.14;83.91;93030.09;5147181;27;20893;-81
2021/08/18 06:15:50;;;;;;;8.05;4.72;;;;;;;18.90;84.86;93051.50;5147674;27;20467;-80
2021/08/18 06:18:17;;;;;;;7.40;4.80;;;;;;;18.86;85.21;93044.47;5145879;27;20429;-79
2021/08/18 06:20:44;;;;;;;8.63;4.50;;;;;;;18.75;85.04;93015.13;5135585;27;20047;-79
2021/08/18 06:23:10;;;;;;;9.43;4.63;;;;;;;18.73;85.41;93051.00;5146279;27;20057;-79
2021/08/18 06:25:37;;;;;;;9.70;4.70;;;;;;;18.89;85.44;93047.31;5147976;27;20529;-79
2021/08/18 06:28:04;;;;;;;8.38;4.82;;;;;;;18.98;84.00;93020.78;5147705;27;20043;-81
2021/08/18 06:30:33;;;;;;;6.57;5.00;;;;;;;19.18;83.59;93038.94;5147580;27;20043;-80
2021/08/18 06:32:59;;;;;;;9.73;3.80;;;;;;;19.49;81.94;93045.81;5147072;27;20596;-80
2021/08/18 06:35:26;;;;;;;11.00;5.15;;;;;;;19.73;81.31;93045.91;5147727;27;20047;-80
2021/08/18 06:37:53;;;;;;;7.10;4.10;;;;;;;19.71;80.50;93029.00;5147633;27;20047;-80
2021/08/18 06:40:20;;;;;;;7.50;4.00;;;;;;;19.86;79.32;93038.56;5147188;27;20095;-80
2021/08/18 06:42:47;;;;;;;7.80;4.00;;;;;;;20.12;77.35;93044.38;5147541;27;20043;-81
2021/08/18 06:45:15;;;;;;;6.18;3.60;;;;;;;20.14;77.83;93031.84;5147417;27;20047;-80
2021/08/18 06:47:43;;;;;;;9.38;4.47;;;;;;;20.07;79.01;93038.41;5147416;27;20043;-81
2021/08/18 06:50:11;;;;;;;5.80;3.78;;;;;;;20.13;76.78;93006.03;5147381;27;20050;-80
2021/08/18 06:52:38;;;;;;;6.80;4.38;;;;;;;20.01;78.49;93042.91;5146833;27;20150;-80
2021/08/18 06:55:06;;;;;;;6.60;4.10;;;;;;;19.75;77.00;92998.75;5147237;27;20043;-80
2021/08/18 06:57:33;;;;;;;7.80;4.55;;;;;;;20.43;76.57;93025.06;5147093;27;20051;-80
2021/08/18 06:59:59;;;;;;;7.50;4.22;;;;;;;20.68;75.24;93023.25;5147351;27;20407;-79
2021/08/18 07:02:26;;;;;;;6.78;4.43;;;;;;;20.92;75.16;93018.06;5147557;27;20391;-78
2021/08/18 07:04:54;;;;;;;10.70;4.32;;;;;;;20.99;74.79;93028.19;5146834;27;20058;-79
2021/08/18 07:07:21;;;;;;;7.43;4.10;;;;;;;20.82;73.76;93025.97;5147033;27;20487;-79
2021/08/18 07:09:48;;;;;;;8.27;4.13;;;;;;;20.78;75.82;93014.56;5147054;27;20407;-79
2021/08/18 07:12:15;;;;;;;7.75;4.45;;;;;;;20.77;75.20;93012.97;5145121;27;20047;-79
2021/08/18 07:14:42;;;;;;;7.95;4.72;;;;;;;20.86;74.37;93023.59;5132630;27;20043;-81
2021/08/18 07:17:08;;;;;;;6.90;5.03;;;;;;;20.40;75.43;93023.00;5132712;27;20043;-80
2021/08/18 07:19:35;;;;;;;9.18;5.00;;;;;;;20.41;75.90;93025.34;5132830;27;20043;-80
2021/08/18 07:22:04;;;;;;;11.00;5.65;;;;;;;20.79;77.04;93016.09;5132913;27;20050;-80
2021/08/18 07:24:31;;;;;;;11.88;5.53;;;;;;;20.86;75.03;93027.00;5132661;27;20051;-80
2021/08/18 07:26:58;;;;;;;7.53;4.85;;;;;;;21.18;74.40;93016.97;5132791;27;20411;-81
2021/08/18 07:41:55;;;;;;;6.57;4.50;;;;;;;23.05;67.31;92987.88;5082921;27;1347859;-82
2021/08/18 07:44:22;;;;;;;8.98;5.05;;;;;;;23.14;66.83;93020.16;5106775;28;20135;-81
2021/08/18 07:46:49;;;;;;;10.35;5.50;;;;;;;23.06;67.00;93019.00;5106561;28;20051;-80
2021/08/18 07:49:16;;;;;;;10.05;5.45;;;;;;;23.01;68.15;93013.84;5106339;28;20408;-83
2021/08/18 07:51:43;;;;;;;14.48;5.82;;;;;;;23.21;67.01;93011.91;5106663;28;20048;-82
2021/08/18 07:54:10;;;;;;;9.20;5.00;;;;;;;23.28;66.81;93014.88;5106501;28;20077;-82
2021/08/18 07:56:37;;;;;;;9.25;5.45;;;;;;;23.30;65.25;92991.03;5106160;28;20043;-84
2021/08/18 07:59:05;;;;;;;11.30;6.05;;;;;;;23.49;66.66;93004.81;5106581;28;20047;-82
2021/08/18 08:01:32;;;;;;;10.02;5.65;;;;;;;23.44;65.33;93015.38;5106493;28;20113;-81
2021/08/18 08:03:59;;;;;;;14.30;5.68;;;;;;;23.32;65.76;92994.94;5106617;28;20051;-81
2021/08/18 08:06:25;;;;;;;10.25;5.60;;;;;;;23.55;64.63;92997.59;5106555;28;20054;-82
2021/08/18 08:08:52;;;;;;;11.70;6.10;;;;;;;23.51;65.48;93012.34;5106557;28;20047;-82
2021/08/18 08:11:19;;;;;;;9.25;6.05;;;;;;;23.17;65.25;93000.44;5104472;28;20407;-81
2021/08/18 08:13:46;;;;;;;8.95;5.03;;;;;;;23.27;65.38;92981.91;5103916;28;20051;-81
2021/08/18 08:16:14;;;;;;;8.75;6.05;;;;;;;23.47;64.87;92993.81;5104647;28;20074;-81
2021/08/18 08:18:41;;;;;;;12.18;6.30;;;;;;;23.70;66.10;93004.31;5106067;28;20044;-80
2021/08/18 08:21:08;;;;;;;11.40;6.20;;;;;;;23.42;64.95;93006.28;5106210;28;20047;-80
2021/08/18 08:23:35;;;;;;;9.38;5.78;;;;;;;23.61;66.03;92998.25;5106182;28;20051;-80
2021/08/18 08:26:02;;;;;;;12.27;7.13;;;;;;;23.94;64.37;93003.28;5105953;28;20048;-80
2021/08/18 08:28:28;;;;;;;9.90;6.80;;;;;;;23.86;64.00;92990.88;5106090;28;20047;-80
2021/08/18 08:30:55;;;;;;;13.88;6.72;;;;;;;23.93;63.66;93004.31;5091099;28;20143;-81
2021/08/18 08:33:23;;;;;;;13.05;7.20;;;;;;;23.78;64.59;92994.22;5085788;28;20071;-81
2021/08/18 08:35:51;;;;;;;12.30;7.13;;;;;;;23.90;64.40;92986.56;5085547;28;20071;-81
2021/08/18 08:38:18;;;;;;;12.85;7.13;;;;;;;24.00;64.02;93001.28;5085662;28;20041;-81
2021/08/18 08:40:45;;;;;;;10.95;7.88;;;;;;;23.13;64.65;92966.22;5083776;28;20062;-81
2021/08/18 08:43:14;;;;;;;11.95;7.38;;;;;;;23.33;66.15;92988.63;5070835;28;20053;-81
2021/08/18 08:45:46;;;;;;;13.43;7.88;;;;;;;23.51;65.03;92988.75;5071801;28;20078;-81
2021/08/18 08:48:13;;;;;;;13.88;7.80;;;;;;;23.82;65.39;92997.78;5071897;28;20063;-81
2021/08/18 08:50:42;;;;;;;10.30;7.80;;;;;;;23.73;65.00;92981.97;5071801;28;20045;-81
2021/08/18 08:53:08;;;;;;;12.68;7.70;;;;;;;23.99;64.00;92995.28;5071645;28;20052;-81
2021/08/18 08:55:35;;;;;;;13.38;8.15;;;;;;;24.17;63.45;92984.91;5071752;28;20432;-80
2021/08/18 08:58:02;;;;;;;14.02;7.88;;;;;;;24.08;63.79;92984.09;5071787;28;20071;-80
2021/08/18 09:00:29;;;;;;;10.90;8.10;;;;;;;24.40;62.21;92993.50;5069969;28;20059;-81
2021/08/18 09:03:15;;;;;;;11.82;8.40;;;;;;;24.33;63.50;92995.00;5068631;28;20408;-81
2021/08/18 09:05:44;;;;;;;13.93;8.13;;;;;;;24.25;63.04;92999.16;5071318;28;20087;-80
2021/08/18 09:08:13;;;;;;;11.88;7.45;;;;;;;24.54;62.34;92993.41;5071530;28;20086;-81
2021/08/18 09:10:40;;;;;;;12.75;8.45;;;;;;;24.67;62.03;92967.38;5071666;28;20056;-81
2021/08/18 09:13:15;;;;;;;12.10;7.63;;;;;;;24.85;61.49;92977.97;5071416;28;20051;-81
2021/08/18 09:15:43;;;;;;;12.60;8.05;;;;;;;24.98;61.58;92963.91;5071543;28;20049;-80
2021/08/18 09:18:10;;;;;;;12.23;8.07;;;;;;;24.98;60.55;92950.78;5071243;28;20432;-80
2021/08/18 09:20:43;;;;;;;14.93;8.52;;;;;;;24.34;59.47;92923.09;5071177;28;20048;-80
2021/08/18 09:23:12;;;;;;;10.43;7.30;;;;;;;23.89;62.76;92979.78;5071741;28;20052;-80
2021/08/18 09:25:40;;;;;;;12.82;8.05;;;;;;;23.87;63.49;92974.84;5071096;28;20048;-80
2021/08/18 09:28:18;;;;;;;15.60;8.02;;;;;;;23.89;63.81;92964.06;5070273;28;20045;-81
2021/08/18 09:30:47;;;;;;;12.38;7.63;;;;;;;24.28;63.13;92961.81;5069702;28;20067;-81
2021/08/18 09:33:16;;;;;;;12.98;7.68;;;;;;;24.41;60.10;92963.59;5067836;28;20444;-80
2021/08/18 09:35:45;;;;;;;12.15;7.88;;;;;;;24.07;61.48;92970.16;5067426;28;20051;-80
2021/08/18 09:38:15;;;;;;;11.35;7.30;;;;;;;23.51;63.43;92959.16;5070837;28;20053;-80
2021/08/18 09:53:26;;;;;;;11.75;7.82;;;;;;;25.94;55.54;92944.00;5092749;27;20375;-81
2021/08/18 09:56:04;;;;;;;18.55;8.95;;;;;;;24.81;57.93;92926.03;5086484;28;20040;-81
2021/08/18 09:58:34;;;;;;;12.80;8.60;;;;;;;25.15;58.57;92910.63;5086423;28;20055;-82
2021/08/18 10:01:02;;;;;;;13.75;8.00;;;;;;;25.72;58.27;92911.53;5085832;28;20056;-81
2021/08/18 10:03:29;;;;;;;11.95;7.95;;;;;;;26.25;55.82;92934.34;5082824;28;20056;-82
2021/08/18 10:05:59;;;;;;;11.38;7.63;;;;;;;26.54;55.88;92933.63;5075701;28;20048;-82
2021/08/18 10:08:27;;;;;;;12.45;8.80;;;;;;;26.11;55.55;92922.09;5076950;28;20055;-83
2021/08/18 10:10:58;;;;;;;12.27;8.27;;;;;;;26.08;55.30;92914.06;5079071;28;20052;-83
2021/08/18 10:13:25;;;;;;;11.15;9.00;;;;;;;25.93;55.65;92921.41;5076587;28;20049;-80
2021/08/18 10:15:53;;;;;;;12.07;8.15;;;;;;;25.83;55.36;92913.84;5065859;28;20045;-81
2021/08/18 10:18:28;;;;;;;14.70;8.43;;;;;;;25.96;56.40;92922.63;5065005;28;20045;-83
2021/08/18 10:20:58;;;;;;;10.40;8.60;;;;;;;25.88;56.26;92893.38;5065557;28;20072;-82
2021/08/18 10:23:42;;;;;;;13.40;8.68;;;;;;;26.33;56.49;92909.06;5063517;28;20416;-82
2021/08/18 10:26:09;;;;;;;11.18;8.13;;;;;;;26.25;54.88;92861.38;5063561;28;20320;-82
2021/08/18 10:29:01;;;;;;;10.73;7.75;;;;;;;26.65;52.43;92889.22;5064493;28;20052;-83
2021/08/18 10:31:56;;;;;;;14.35;7.50;;;;;;;27.38;52.43;92906.88;5065466;28;20055;-83
2021/08/18 10:34:51;;;;;;;13.82;8.20;;;;;;;27.28;52.15;92873.78;5064215;28;20048;-83
2021/08/18 10:37:23;;;;;;;11.32;8.07;;;;;;;27.74;50.58;92905.53;5029835;28;20044;-83
2021/08/18 10:39:54;;;;;;;11.40;7.97;;;;;;;27.27;51.54;92902.03;5065254;28;20053;-83
2021/08/18 10:42:38;;;;;;;11.45;7.85;;;;;;;27.45;50.31;92881.53;5064700;28;20064;-83
2021/08/18 10:45:36;;;;;;;12.68;7.68;;;;;;;27.92;50.73;92900.06;5063798;28;20094;-83
2021/08/18 10:48:03;;;;;;;15.10;8.73;;;;;;;26.81;49.98;92881.53;5065211;28;20413;-83
2021/08/18 11:02:51;;;;;;;10.52;8.20;;;;;;;28.47;48.35;92868.25;5077402;27;1352450;-83
2021/08/18 11:05:19;;;;;;;16.80;9.77;;;;;;;28.63;49.41;92866.47;5084254;28;20129;-82
2021/08/18 11:08:08;;;;;;;14.45;9.15;;;;;;;28.44;46.91;92831.91;5085203;28;20048;-85
2021/08/18 11:10:37;;;;;;;18.52;8.95;;;;;;;28.40;47.69;92832.59;5085683;28;20041;-82
2021/08/18 11:13:06;;;;;;;10.98;8.07;;;;;;;28.25;47.64;92843.81;5086725;28;20109;-85
2021/08/18 11:15:51;;;;;;;15.65;8.82;;;;;;;29.03;47.71;92865.00;5086512;28;20102;-83
2021/08/18 11:18:20;;;;;;;15.27;8.43;;;;;;;28.88;46.38;92815.47;5085884;28;20063;-83
2021/08/18 11:20:48;;;;;;;13.70;8.75;;;;;;;28.77;45.47;92836.25;5085637;28;20052;-84
2021/08/18 11:23:15;;;;;;;13.30;9.15;;;;;;;29.31;46.21;92863.47;5086303;28;20044;-84
2021/08/18 11:25:43;;;;;;;14.10;7.53;;;;;;;29.04;45.19;92834.81;5086273;28;20094;-84
2021/08/18 11:28:21;;;;;;;12.95;8.82;;;;;;;29.09;44.23;92825.84;5085821;28;20489;-83
2021/08/18 11:30:57;;;;;;;12.65;8.25;;;;;;;29.23;44.64;92848.50;5094080;28;20048;-84
2021/08/18 11:33:26;;;;;;;11.63;7.95;;;;;;;29.50;44.42;92820.53;5101776;28;20516;-84
2021/08/18 11:35:54;;;;;;;14.63;7.78;;;;;;;29.25;43.44;92772.25;5106350;28;20059;-84
2021/08/18 11:38:22;;;;;;;12.80;7.18;;;;;;;28.80;43.14;92854.09;5106084;28;20415;-83
2021/08/18 11:40:51;;;;;;;12.75;7.82;;;;;;;29.00;44.87;92841.06;5106533;28;20048;-84
2021/08/18 11:43:18;;;;;;;12.90;8.35;;;;;;;29.38;44.36;92812.63;5106320;28;20055;-83
2021/08/18 11:45:52;;;;;;;13.02;8.40;;;;;;;28.88;46.61;92840.00;5106090;28;20500;-82
2021/08/18 11:48:22;;;;;;;12.25;8.32;;;;;;;28.90;44.98;92824.59;5105909;28;20495;-82
2021/08/18 11:50:56;;;;;;;13.70;8.90;;;;;;;29.08;44.93;92829.59;5105662;28;20514;-83
2021/08/18 11:53:25;;;;;;;12.23;8.63;;;;;;;29.28;45.92;92821.81;5106189;28;20097;-82
2021/08/18 11:55:59;;;;;;;12.38;8.60;;;;;;;29.27;45.23;92828.19;5106141;28;20083;-81
2021/08/18 11:58:31;;;;;;;14.10;8.82;;;;;;;28.98;44.75;92817.63;5105816;28;20086;-83
2021/08/18 12:01:00;;;;;;;11.43;8.23;;;;;;;28.49;45.58;92821.91;5106004;28;20056;-81
2021/08/18 12:03:28;;;;;;;12.95;8.73;;;;;;;28.52;46.68;92801.97;5092398;28;20097;-82
2021/08/18 12:06:04;;;;;;;12.13;8.25;;;;;;;29.15;44.92;92816.56;5092604;28;20044;-82
2021/08/18 12:08:39;;;;;;;13.68;8.35;;;;;;;29.26;44.84;92810.78;5092502;28;20097;-82
2021/08/18 12:11:08;;;;;;;12.38;8.68;;;;;;;29.24;44.87;92786.56;5100025;28;20048;-81
2021/08/18 12:13:44;;;;;;;12.30;8.32;;;;;;;28.52;44.52;92826.50;5108077;28;20048;-80
2021/08/18 12:16:32;;;;;;;13.60;8.90;;;;;;;27.94;46.98;92818.69;5092544;28;20063;-81
2021/08/18 12:19:22;;;;;;;13.98;9.23;;;;;;;28.16;47.11;92801.66;5087081;28;20047;-81
2021/08/18 12:22:10;;;;;;;12.75;8.45;;;;;;;28.26;45.77;92790.66;5091816;28;20052;-81